Dycusburg, KY (42037)

9:03 AM CST on November 23, 2014 (GMT -0600)
Calvert City | Change Station
CLOSE
Current Station
Personal Weather Station
Location: Calvert City, KY
Elevation: 364 ft
Nearby Weather Stations

Elev 364 ft 37.02 °N, 88.33 °W | Updated 14 seconds ago

Overcast
Overcast
55.2 °F
Feels Like 55.2 °F
N
9.8
Wind Variable Wind from ESE
Gusts 13.0 mph

Today
High -- | Low -- °F
--% Chance of Precip.
Yesterday
High -- | Low -- °F
Precip. -- in
6:39 AM 4:38 PM
New Moon, 1% visible
Pressure 29.78 in
Visibility 10.0 miles
Clouds Overcast 2000 ft
Dew Point 45 °F
Humidity 69%
Rainfall 0.00 in
Snow Depth Not available.
UV 0 out of 12
Pollen .40 out of 12
Air Quality Not available.
Flu Activity Not available.
METAR K5M9 231455Z AUTO 14008KT 10SM OVC020 11/08 A2978 RMK AO2 T01120077

More Conditions Fewer Conditions

Pressure 29.78 in
Visibility 10.0 miles
Clouds Overcast 2000 ft
Dew Point 45 °F
Humidity 69%
Rainfall 0.00 in
Snow Depth Not available.
UV 0 out of 12
Pollen .40 out of 12
Air Quality Not available.
Flu Activity Not available.
METAR K5M9 231455Z AUTO 14008KT 10SM OVC020 11/08 A2978 RMK AO2 T01120077

More Conditions Fewer Conditions

10-Day Weather Forecast

Almanac

Astronomy

Nov. 23, 2014 Rise Set
Actual Time
Civil Twilight
Nautical Twilight
Astronomical Twilight
Moon
Length of Visible Light
Length of Day
Tomorrow will be .
, % of the Moon is Illuminated

Today's Extremes

State Highs State Lows

Community

WunderPhotos

Upload Photos

1,773,085 photos uploaded!

WunderBlogs® & News

Nearby

Air Quality

  Air Quality AQ Index Pollutant
Not available.

Snow Depth

Station Depth Elevation

Earthquake Activity

City Distance Mag. Time & Date
Minimum magnitude displayed is 2.5.

Coastal Water Temperatures

Place Temperature

Nearby Weather Stations